createdAt,value
2023-04-27T00:01:01.076Z,11.98
2023-04-27T00:03:28.394Z,9.82
2023-04-27T00:05:55.321Z,7.60
2023-04-27T00:08:22.091Z,9.77
2023-04-27T00:10:48.582Z,7.20
2023-04-27T00:13:14.950Z,7.65
2023-04-27T00:15:41.654Z,6.88
2023-04-27T00:18:08.174Z,6.82
2023-04-27T00:20:34.754Z,8.63
2023-04-27T00:23:01.209Z,7.63
2023-04-27T00:25:27.824Z,5.88
2023-04-27T00:27:54.325Z,8.27
2023-04-27T00:30:20.820Z,8.43
2023-04-27T00:32:47.282Z,7.82
2023-04-27T00:35:13.746Z,6.95
2023-04-27T00:37:40.163Z,7.45
2023-04-27T00:40:07.902Z,7.47
2023-04-27T00:42:35.469Z,7.88
2023-04-27T00:45:02.401Z,11.63
2023-04-27T00:47:30.521Z,9.98
2023-04-27T00:49:57.147Z,9.10
2023-04-27T00:52:23.600Z,8.05
2023-04-27T00:54:52.216Z,8.30
2023-04-27T00:57:19.002Z,7.15
2023-04-27T00:59:46.120Z,11.68
2023-04-27T01:02:13.650Z,8.13
2023-04-27T01:04:41.013Z,5.97
2023-04-27T01:07:07.497Z,7.05
2023-04-27T01:09:33.961Z,7.88
2023-04-27T01:12:00.373Z,6.93
2023-04-27T01:14:26.799Z,7.70
2023-04-27T01:16:53.297Z,13.35
2023-04-27T01:19:19.790Z,8.43
2023-04-27T01:21:46.561Z,6.65
2023-04-27T01:24:12.981Z,7.95
2023-04-27T01:26:39.417Z,10.82
2023-04-27T01:29:06.206Z,8.45
2023-04-27T01:31:34.193Z,8.15
2023-04-27T01:34:00.639Z,6.90
2023-04-27T01:36:27.780Z,9.63
2023-04-27T01:38:54.206Z,9.95
2023-04-27T01:41:20.641Z,8.10
2023-04-27T01:43:47.106Z,8.40
2023-04-27T01:46:14.338Z,8.85
2023-04-27T01:48:41.351Z,7.88
2023-04-27T01:51:07.794Z,9.02
2023-04-27T01:53:46.461Z,7.57
2023-04-27T01:56:12.871Z,7.13
2023-04-27T01:58:45.242Z,11.73
2023-04-27T02:01:11.827Z,9.38
2023-04-27T02:03:38.465Z,8.30
2023-04-27T02:06:10.985Z,10.48
2023-04-27T02:08:37.429Z,10.55
2023-04-27T02:11:03.910Z,8.98
2023-04-27T02:13:42.349Z,10.43
2023-04-27T02:16:20.808Z,10.05
2023-04-27T02:18:47.676Z,11.13
2023-04-27T02:21:14.103Z,6.97
2023-04-27T02:23:46.359Z,7.68
2023-04-27T02:26:20.359Z,8.82
2023-04-27T02:29:55.928Z,7.38
2023-04-27T02:33:19.211Z,8.77
2023-04-27T02:36:48.172Z,8.15
2023-04-27T02:40:10.974Z,8.07
2023-04-27T02:43:52.376Z,10.20
2023-04-27T02:47:15.240Z,7.70
2023-04-27T02:50:56.391Z,5.68
2023-04-27T02:54:24.985Z,6.45
2023-04-27T02:57:47.853Z,6.78
2023-04-27T03:01:16.982Z,10.30
2023-04-27T03:04:39.767Z,10.07
2023-04-27T03:08:14.868Z,5.78
2023-04-27T03:11:37.717Z,7.55
2023-04-27T03:15:13.105Z,5.88
2023-04-27T03:18:35.960Z,7.35
2023-04-27T03:21:20.961Z,10.20
2023-04-27T03:23:47.436Z,8.60
2023-04-27T03:26:14.914Z,6.65
2023-04-27T03:28:42.228Z,7.15
2023-04-27T03:31:11.779Z,8.82
2023-04-27T03:33:38.301Z,9.48
2023-04-27T03:36:06.466Z,9.45
2023-04-27T03:38:33.660Z,7.20
2023-04-27T03:41:00.160Z,7.47
2023-04-27T03:43:27.120Z,5.13
2023-04-27T03:45:53.943Z,7.47
2023-04-27T03:48:20.738Z,7.88
2023-04-27T03:50:47.260Z,9.57
2023-04-27T03:53:14.267Z,9.55
2023-04-27T03:55:42.311Z,8.00
2023-04-27T03:58:10.330Z,8.20
2023-04-27T04:00:37.805Z,11.10
2023-04-27T04:03:05.689Z,8.32
2023-04-27T04:05:32.571Z,7.07
2023-04-27T04:07:58.999Z,8.20
2023-04-27T04:10:25.604Z,6.60
2023-04-27T04:12:52.884Z,6.22
2023-04-27T04:15:20.221Z,8.85
2023-04-27T04:17:47.539Z,9.88
2023-04-27T04:20:14.184Z,12.82
2023-04-27T04:22:40.597Z,9.32
2023-04-27T04:25:07.480Z,7.93
2023-04-27T04:27:33.932Z,9.95
2023-04-27T04:30:00.564Z,9.35
2023-04-27T04:32:31.348Z,11.00
2023-04-27T04:34:58.872Z,8.32
2023-04-27T04:37:27.673Z,7.72
2023-04-27T04:39:54.075Z,9.25
2023-04-27T04:42:20.758Z,7.90
2023-04-27T04:44:47.282Z,7.88
2023-04-27T04:47:13.720Z,9.02
2023-04-27T04:49:40.251Z,8.77
2023-04-27T04:52:06.762Z,9.00
2023-04-27T04:54:33.187Z,8.27
2023-04-27T04:57:00.926Z,7.55
2023-04-27T04:59:27.372Z,9.57
2023-04-27T05:01:56.811Z,7.70
2023-04-27T05:04:23.540Z,10.90
2023-04-27T05:06:50.187Z,10.63
2023-04-27T05:09:16.604Z,11.65
2023-04-27T05:11:49.085Z,10.50
2023-04-27T05:14:15.547Z,15.63
2023-04-27T05:16:42.129Z,14.43
2023-04-27T05:19:08.683Z,9.85
2023-04-27T05:21:35.251Z,7.78
2023-04-27T05:24:01.722Z,7.90
2023-04-27T05:26:28.415Z,9.70
2023-04-27T05:28:54.825Z,9.98
2023-04-27T05:31:28.936Z,9.07
2023-04-27T05:33:55.866Z,15.98
2023-04-27T05:36:22.372Z,12.02
2023-04-27T05:38:48.822Z,10.73
2023-04-27T05:41:15.540Z,16.75
2023-04-27T05:43:41.932Z,14.63
2023-04-27T05:46:08.627Z,11.13
2023-04-27T05:48:35.046Z,16.52
2023-04-27T05:51:02.762Z,14.20
2023-04-27T05:53:34.494Z,10.68
2023-04-27T05:56:01.239Z,14.25
2023-04-27T05:58:27.850Z,11.48
2023-04-27T06:00:54.811Z,8.70
2023-04-27T06:03:21.676Z,14.93
2023-04-27T06:05:55.350Z,14.82
2023-04-27T06:08:23.382Z,12.07
2023-04-27T06:10:53.086Z,14.82
2023-04-27T06:13:20.264Z,11.75
2023-04-27T06:15:47.458Z,14.15
2023-04-27T06:18:14.520Z,12.00
2023-04-27T06:20:41.922Z,16.33
2023-04-27T06:23:08.718Z,17.02
2023-04-27T06:25:37.398Z,12.60
2023-04-27T06:28:03.914Z,13.45
2023-04-27T06:30:30.353Z,10.32
2023-04-27T06:32:56.870Z,14.27
2023-04-27T06:35:23.410Z,16.13
2023-04-27T06:37:49.871Z,12.73
2023-04-27T06:40:16.342Z,11.45
2023-04-27T06:42:42.774Z,14.07
2023-04-27T06:45:09.523Z,11.90
2023-04-27T06:47:37.701Z,10.73
2023-04-27T06:50:04.386Z,13.35
2023-04-27T06:52:33.166Z,11.65
2023-04-27T06:54:59.619Z,10.50
2023-04-27T06:57:26.037Z,11.88
2023-04-27T06:59:52.444Z,12.23
2023-04-27T07:02:18.985Z,12.95
2023-04-27T07:04:45.780Z,13.15
2023-04-27T07:07:12.181Z,12.95
2023-04-27T07:09:38.731Z,19.80
2023-04-27T07:12:05.194Z,8.25
2023-04-27T07:14:33.498Z,13.45
2023-04-27T07:16:59.937Z,16.42
2023-04-27T07:19:26.340Z,13.43
2023-04-27T07:21:52.824Z,13.82
2023-04-27T07:24:20.181Z,17.42
2023-04-27T07:26:46.673Z,13.25
2023-04-27T07:29:26.133Z,14.20
2023-04-27T07:31:54.501Z,11.63
2023-04-27T07:34:21.022Z,13.13
2023-04-27T07:36:47.523Z,13.65
2023-04-27T07:39:14.678Z,12.07
2023-04-27T07:41:41.252Z,13.50
2023-04-27T07:44:07.623Z,8.50
2023-04-27T07:46:34.203Z,14.18
2023-04-27T07:49:01.197Z,13.68
2023-04-27T07:51:30.506Z,10.55
2023-04-27T07:53:56.886Z,15.65
2023-04-27T07:56:23.316Z,15.68
2023-04-27T07:58:49.731Z,12.00
2023-04-27T08:01:17.608Z,14.70
2023-04-27T08:03:45.469Z,9.68
2023-04-27T08:06:12.374Z,12.48
2023-04-27T08:08:38.960Z,11.95
2023-04-27T08:11:08.785Z,13.75
2023-04-27T08:13:35.350Z,11.63
2023-04-27T08:16:01.951Z,17.52
2023-04-27T08:18:28.465Z,14.02
2023-04-27T08:20:55.582Z,13.40
2023-04-27T08:23:22.020Z,13.25
2023-04-27T08:25:48.599Z,11.18
2023-04-27T08:28:15.435Z,14.80
2023-04-27T08:30:42.716Z,11.20
2023-04-27T08:33:09.211Z,13.55
2023-04-27T08:35:35.653Z,10.43
2023-04-27T08:38:02.151Z,10.38
2023-04-27T08:40:28.647Z,9.68
2023-04-27T08:42:59.350Z,10.93
2023-04-27T08:45:27.122Z,11.88
2023-04-27T08:47:53.949Z,24.50
2023-04-27T08:50:20.499Z,13.95
2023-04-27T08:52:48.028Z,12.10
2023-04-27T08:55:16.639Z,11.32
2023-04-27T08:57:57.286Z,13.30
2023-04-27T09:00:25.176Z,11.77
2023-04-27T09:02:51.774Z,15.20
2023-04-27T09:05:23.062Z,8.15
2023-04-27T09:08:15.795Z,12.70
2023-04-27T09:10:50.111Z,12.18
2023-04-27T09:13:17.177Z,10.65
2023-04-27T09:15:47.849Z,9.18
2023-04-27T09:18:21.110Z,11.32
2023-04-27T09:20:49.699Z,10.68
2023-04-27T09:23:33.367Z,8.15
2023-04-27T09:26:02.287Z,9.13
2023-04-27T09:28:30.915Z,11.95
2023-04-27T09:31:04.126Z,11.38
2023-04-27T09:33:32.794Z,10.07
2023-04-27T09:36:01.396Z,11.40
2023-04-27T09:38:28.032Z,14.50
2023-04-27T09:40:55.112Z,10.10
2023-04-27T09:43:22.037Z,9.43
2023-04-27T09:45:49.894Z,9.27
2023-04-27T09:48:17.405Z,10.68
2023-04-27T09:50:45.551Z,12.85
2023-04-27T09:53:14.530Z,7.18
2023-04-27T09:55:51.724Z,9.63
2023-04-27T09:58:39.899Z,12.68
2023-04-27T10:01:31.761Z,12.25
2023-04-27T10:04:20.548Z,10.30
2023-04-27T10:09:26.689Z,10.68
2023-04-27T10:11:54.871Z,11.48
2023-04-27T10:14:23.319Z,11.55
2023-04-27T10:16:51.929Z,9.13
2023-04-27T10:19:19.539Z,8.98
2023-04-27T10:21:52.879Z,10.10
2023-04-27T10:24:19.363Z,10.63
2023-04-27T10:26:47.857Z,11.05
2023-04-27T10:29:16.469Z,9.15
2023-04-27T10:31:48.366Z,11.90
2023-04-27T10:34:21.367Z,12.27
2023-04-27T10:36:48.060Z,10.35
2023-04-27T10:39:18.618Z,11.23
2023-04-27T10:41:52.723Z,10.15
2023-04-27T10:44:28.455Z,8.27
2023-04-27T10:46:57.183Z,12.55
2023-04-27T10:49:23.779Z,10.10
2023-04-27T10:51:51.346Z,13.10
2023-04-27T10:54:18.731Z,13.43
2023-04-27T10:56:45.620Z,9.07
2023-04-27T10:59:12.552Z,9.20
2023-04-27T11:01:40.228Z,11.93
2023-04-27T11:04:06.854Z,7.60
2023-04-27T11:06:42.288Z,13.88
2023-04-27T11:09:10.654Z,12.85
2023-04-27T11:11:37.360Z,12.65
2023-04-27T11:14:03.847Z,14.40
2023-04-27T11:16:32.914Z,14.75
2023-04-27T11:19:05.203Z,8.57
2023-04-27T11:21:32.363Z,11.60
2023-04-27T11:24:08.594Z,9.40
2023-04-27T11:26:34.997Z,10.60
2023-04-27T11:29:05.116Z,10.15
2023-04-27T11:31:51.451Z,14.05
2023-04-27T11:34:23.102Z,14.38
2023-04-27T11:37:14.345Z,10.70
2023-04-27T11:39:46.658Z,11.90
2023-04-27T11:42:24.402Z,9.80
2023-04-27T11:44:54.703Z,10.40
2023-04-27T11:49:50.545Z,14.57
2023-04-27T11:52:17.593Z,13.60
2023-04-27T11:54:48.544Z,15.07
2023-04-27T11:57:15.153Z,16.15
2023-04-27T11:59:41.938Z,17.42
2023-04-27T12:02:09.236Z,16.90
2023-04-27T12:04:36.178Z,12.77
2023-04-27T12:07:03.860Z,14.73
2023-04-27T12:09:30.338Z,15.95
2023-04-27T12:11:56.772Z,13.13
2023-04-27T12:14:24.673Z,15.73
2023-04-27T12:16:51.759Z,14.77
2023-04-27T12:19:18.353Z,16.75
2023-04-27T12:21:45.388Z,17.17
2023-04-27T12:24:12.441Z,9.07
2023-04-27T12:26:39.762Z,16.40
2023-04-27T12:29:07.093Z,10.23
2023-04-27T12:31:34.147Z,12.63
2023-04-27T12:34:01.017Z,14.43
2023-04-27T12:36:27.413Z,15.85
2023-04-27T12:38:58.336Z,15.52
2023-04-27T12:41:25.158Z,14.52
2023-04-27T12:43:51.929Z,13.50
2023-04-27T12:46:18.690Z,11.02
2023-04-27T12:48:45.182Z,15.35
2023-04-27T12:51:11.687Z,15.90
2023-04-27T12:53:39.358Z,15.20
2023-04-27T12:56:06.132Z,12.20
2023-04-27T12:58:32.658Z,15.20
2023-04-27T13:00:59.163Z,18.58
2023-04-27T13:03:25.806Z,16.98
2023-04-27T13:05:52.314Z,11.68
2023-04-27T13:08:18.857Z,15.85
2023-04-27T13:10:45.378Z,17.48
2023-04-27T13:13:11.909Z,18.63
2023-04-27T13:15:38.752Z,13.57
2023-04-27T13:18:06.583Z,12.60
2023-04-27T13:20:48.488Z,15.88
2023-04-27T13:23:14.926Z,17.83
2023-04-27T13:25:41.572Z,18.58
2023-04-27T13:28:08.167Z,18.17
2023-04-27T13:30:34.725Z,18.80
2023-04-27T13:33:14.166Z,15.32
2023-04-27T13:35:47.999Z,12.50
2023-04-27T13:38:14.446Z,14.88
2023-04-27T13:40:40.979Z,13.50
2023-04-27T13:43:07.728Z,15.27
2023-04-27T13:45:34.132Z,13.48
2023-04-27T13:48:00.662Z,10.02
2023-04-27T13:50:27.157Z,11.90
2023-04-27T13:52:53.586Z,9.93
2023-04-27T13:55:20.043Z,10.52
2023-04-27T13:57:46.507Z,13.00
2023-04-27T14:00:14.396Z,16.48
2023-04-27T14:02:41.327Z,15.65
2023-04-27T14:05:08.380Z,14.40
2023-04-27T14:07:35.710Z,17.33
2023-04-27T14:10:05.793Z,13.23
2023-04-27T14:12:32.644Z,17.52
2023-04-27T14:14:59.435Z,10.82
2023-04-27T14:17:25.900Z,14.93
2023-04-27T14:19:52.327Z,17.02
2023-04-27T14:22:18.790Z,13.02
2023-04-27T14:24:45.340Z,18.98
2023-04-27T14:27:11.799Z,13.48
2023-04-27T14:29:38.397Z,11.85
2023-04-27T14:32:06.351Z,16.50
2023-04-27T14:34:32.999Z,15.80
2023-04-27T14:36:59.467Z,15.88
2023-04-27T14:39:27.976Z,11.73
2023-04-27T14:41:54.530Z,15.95
2023-04-27T14:44:21.062Z,17.17
2023-04-27T14:46:47.545Z,17.45
2023-04-27T14:49:14.387Z,17.73
2023-04-27T14:51:43.349Z,15.70
2023-04-27T14:54:10.104Z,14.50
2023-04-27T14:56:36.664Z,10.60
2023-04-27T14:59:03.231Z,15.13
2023-04-27T15:01:29.851Z,17.25
2023-04-27T15:03:57.940Z,17.60
2023-04-27T15:06:28.144Z,17.48
2023-04-27T15:08:55.611Z,19.55
2023-04-27T15:11:22.300Z,15.35
2023-04-27T15:13:49.135Z,13.77
2023-04-27T15:16:15.715Z,13.70
2023-04-27T15:18:42.292Z,15.65
2023-04-27T15:21:08.724Z,15.95
2023-04-27T15:23:37.132Z,15.57
2023-04-27T15:26:03.663Z,15.55
2023-04-27T15:28:30.785Z,12.75
2023-04-27T15:30:57.372Z,11.73
2023-04-27T15:33:23.944Z,16.70
2023-04-27T15:35:50.710Z,17.50
2023-04-27T15:38:17.888Z,16.63
2023-04-27T15:40:45.406Z,18.58
2023-04-27T15:43:11.985Z,16.23
2023-04-27T15:45:38.740Z,15.32
2023-04-27T15:48:05.334Z,13.95
2023-04-27T15:50:32.418Z,13.27
2023-04-27T15:52:58.930Z,13.02
2023-04-27T15:55:25.431Z,15.70
2023-04-27T15:57:51.852Z,14.65
2023-04-27T16:00:21.938Z,11.55
2023-04-27T16:02:48.887Z,11.85
2023-04-27T16:05:16.261Z,12.73
2023-04-27T16:07:44.425Z,15.43
2023-04-27T16:10:11.677Z,15.18
2023-04-27T16:12:38.576Z,13.57
2023-04-27T16:15:05.856Z,12.38
2023-04-27T16:17:41.134Z,17.23
2023-04-27T16:20:08.287Z,15.23
2023-04-27T16:22:38.435Z,13.23
2023-04-27T16:25:10.676Z,13.25
2023-04-27T16:27:38.355Z,11.98
2023-04-27T16:30:06.887Z,14.23
2023-04-27T16:32:35.405Z,16.70
2023-04-27T16:35:02.446Z,13.55
2023-04-27T16:37:28.924Z,14.30
2023-04-27T16:39:59.088Z,9.25
2023-04-27T16:42:26.010Z,13.85
2023-04-27T16:44:52.649Z,15.27
2023-04-27T16:47:19.114Z,19.02
2023-04-27T16:49:45.692Z,11.43
2023-04-27T16:52:12.152Z,11.55
2023-04-27T16:54:38.624Z,11.52
2023-04-27T16:57:05.029Z,12.50
2023-04-27T16:59:31.490Z,14.18
2023-04-27T17:02:01.712Z,9.52
2023-04-27T17:04:39.950Z,13.75
2023-04-27T17:07:09.574Z,9.23
2023-04-27T17:09:37.116Z,9.90
2023-04-27T17:12:08.160Z,14.25
2023-04-27T17:14:34.577Z,12.60
2023-04-27T17:17:01.049Z,12.75
2023-04-27T17:19:28.419Z,10.00
2023-04-27T17:21:57.382Z,12.98
2023-04-27T17:24:24.658Z,10.23
2023-04-27T17:26:51.503Z,8.88
2023-04-27T17:29:18.001Z,10.85
2023-04-27T17:31:44.478Z,10.18
2023-04-27T17:34:11.655Z,9.00
2023-04-27T17:36:38.179Z,13.55
2023-04-27T17:39:04.808Z,6.07
2023-04-27T17:41:32.839Z,12.73
2023-04-27T17:44:00.237Z,8.27
2023-04-27T17:46:26.709Z,8.45
2023-04-27T17:48:53.134Z,10.38
2023-04-27T17:51:19.510Z,12.13
2023-04-27T17:53:45.965Z,11.95
2023-04-27T17:56:12.446Z,10.95
2023-04-27T17:58:38.935Z,8.95
2023-04-27T18:01:09.031Z,8.32
2023-04-27T18:03:36.373Z,8.90
2023-04-27T18:06:02.871Z,7.57
2023-04-27T18:08:29.313Z,9.15
2023-04-27T18:10:55.722Z,6.47
2023-04-27T18:13:22.208Z,12.85
2023-04-27T18:15:48.664Z,8.93
2023-04-27T18:18:19.918Z,10.38
2023-04-27T18:20:47.635Z,6.60
2023-04-27T18:23:14.755Z,11.50
2023-04-27T18:25:41.208Z,10.38
2023-04-27T18:28:07.684Z,11.95
2023-04-27T18:30:34.162Z,7.43
2023-04-27T18:33:00.741Z,11.27
2023-04-27T18:35:27.261Z,10.82
2023-04-27T18:37:53.678Z,17.40
2023-04-27T18:40:21.630Z,10.52
2023-04-27T18:42:48.369Z,12.55
2023-04-27T18:45:15.762Z,9.45
2023-04-27T18:47:42.367Z,10.23
2023-04-27T18:50:10.287Z,11.20
2023-04-27T18:52:36.732Z,9.38
2023-04-27T18:55:03.832Z,9.73
2023-04-27T18:57:30.288Z,10.40
2023-04-27T18:59:56.713Z,10.60
2023-04-27T19:02:25.137Z,11.63
2023-04-27T19:05:01.511Z,10.38
2023-04-27T19:07:37.133Z,12.82
2023-04-27T19:10:04.038Z,8.05
2023-04-27T19:12:31.335Z,9.20
2023-04-27T19:14:57.784Z,6.63
2023-04-27T19:17:24.349Z,9.02
2023-04-27T19:19:51.075Z,8.23
2023-04-27T19:22:17.654Z,9.57
2023-04-27T19:24:44.073Z,10.27
2023-04-27T19:27:11.761Z,11.20
2023-04-27T19:29:51.396Z,8.45
2023-04-27T19:32:18.057Z,8.45
2023-04-27T19:34:44.615Z,8.35
2023-04-27T19:37:11.087Z,6.55
2023-04-27T19:39:38.566Z,8.18
2023-04-27T19:42:05.263Z,11.07
2023-04-27T19:44:31.764Z,7.70
2023-04-27T19:46:59.576Z,7.63
2023-04-27T19:49:25.978Z,9.98
2023-04-27T19:51:52.371Z,11.13
2023-04-27T19:54:18.935Z,10.07
2023-04-27T19:56:45.438Z,8.65
2023-04-27T19:59:12.513Z,7.57
2023-04-27T20:01:38.928Z,10.25
2023-04-27T20:05:20.399Z,14.05
2023-04-27T20:08:43.609Z,8.85
2023-04-27T20:12:06.782Z,10.45
2023-04-27T20:15:42.468Z,9.55
2023-04-27T20:22:51.804Z,8.35
2023-04-27T20:26:15.069Z,8.50
2023-04-27T20:29:37.767Z,12.00
2023-04-27T20:33:00.619Z,6.38
2023-04-27T20:36:35.762Z,8.13
2023-04-27T20:39:58.697Z,6.80
2023-04-27T20:43:34.054Z,8.40
2023-04-27T20:47:09.650Z,7.50
2023-04-27T20:50:32.629Z,7.30
2023-04-27T20:53:55.506Z,7.22
2023-04-27T20:57:30.561Z,5.75
2023-04-27T21:00:53.499Z,6.70
2023-04-27T21:04:16.578Z,9.57
2023-04-27T21:07:51.841Z,9.70
2023-04-27T21:11:17.377Z,8.80
2023-04-27T21:14:40.905Z,9.50
2023-04-27T21:18:03.656Z,12.73
2023-04-27T21:21:26.537Z,8.07
2023-04-27T21:24:49.324Z,9.75
2023-04-27T21:28:12.217Z,8.23
2023-04-27T21:31:35.103Z,9.15
2023-04-27T21:34:58.264Z,7.25
2023-04-27T21:38:27.391Z,9.35
2023-04-27T21:41:50.364Z,8.70
2023-04-27T21:45:12.929Z,8.35
2023-04-27T21:48:35.569Z,7.60
2023-04-27T21:51:26.403Z,11.02
2023-04-27T21:54:23.179Z,10.90
2023-04-27T21:57:26.950Z,7.70
2023-04-27T22:00:37.252Z,7.68
2023-04-27T22:03:22.599Z,10.98
2023-04-27T22:06:14.226Z,11.30
2023-04-27T22:08:46.657Z,9.80
2023-04-27T22:11:25.006Z,10.30
2023-04-27T22:13:51.490Z,14.50
2023-04-27T22:16:18.378Z,9.45
2023-04-27T22:19:02.897Z,11.85
2023-04-27T22:21:29.368Z,10.77
2023-04-27T22:23:55.846Z,12.43
2023-04-27T22:26:22.303Z,15.10
2023-04-27T22:28:48.777Z,10.60
2023-04-27T22:31:15.303Z,12.32
2023-04-27T22:33:41.853Z,11.82
2023-04-27T22:36:08.514Z,10.07
2023-04-27T22:38:35.055Z,13.57
2023-04-27T22:41:01.498Z,10.98
2023-04-27T22:43:27.930Z,12.10
2023-04-27T22:45:54.349Z,8.95
2023-04-27T22:48:21.159Z,7.75
2023-04-27T22:50:47.601Z,7.75
2023-04-27T22:53:14.054Z,7.20
2023-04-27T22:55:40.664Z,10.20
2023-04-27T22:58:07.043Z,9.48
2023-04-27T23:00:33.554Z,13.05
2023-04-27T23:03:00.174Z,11.10
2023-04-27T23:05:27.202Z,10.10
2023-04-27T23:07:53.637Z,11.05
2023-04-27T23:10:20.071Z,9.50
2023-04-27T23:12:46.586Z,10.00
2023-04-27T23:15:13.179Z,10.30
2023-04-27T23:17:39.695Z,12.10
2023-04-27T23:20:11.117Z,12.77
2023-04-27T23:22:43.884Z,8.40
2023-04-27T23:25:11.265Z,11.13
2023-04-27T23:27:37.946Z,15.05
2023-04-27T23:30:06.915Z,10.20
2023-04-27T23:32:34.861Z,12.15
2023-04-27T23:35:01.288Z,12.40
2023-04-27T23:37:27.717Z,14.68
2023-04-27T23:39:54.140Z,12.18
2023-04-27T23:42:20.537Z,14.55
2023-04-27T23:44:47.039Z,14.63
2023-04-27T23:47:13.479Z,12.27
2023-04-27T23:49:44.083Z,15.75
2023-04-27T23:54:37.840Z,8.50
2023-04-27T23:57:04.201Z,8.25
2023-04-27T23:59:34.947Z,9.05
